Latest Weather Observations for Argyle

IDW60801

Issued at 10:35 am WST Saturday 2 August 2014 (issued every 30 minutes, with the page automatically refreshed every 10 minutes)

About weather observations | Map of weather stations | Latest weather observations for WA | Other Formats
Station Details ID: 002064 Name: ARGYLE AERODROME Lat: -16.64 Lon: 128.45 Height: 164.0 m
Data from the previous 72 hours. | See also: Recent months at Argyle
Date/Time
WST
Temp
°C
App
Temp
°C
Dew
Point
Rel
Hum
%
Delta-T
°C
Wind Press
QNH
hPa
Press
MSL
hPa
Rain
since 9 am
mm
Dir
 
Spd
km/h
Gust
km/h
Spd
kts
Gust
kts
02/10:30am 29.1 24.3 0.0 15 13.9 ENE 15 22 8 12 1017.6 - 0.0
02/10:00am 28.4 22.7 -0.5 15 13.6 ESE 19 26 10 14 1018.1 - 0.0
02/09:30am 28.3 22.4 -0.7 15 13.6 E 20 28 11 15 1018.3 - 0.0
02/09:00am 27.9 22.6 -0.9 15 13.4 E 17 26 9 14 1018.3 1017.5 0.0
02/08:30am 27.9 23.3 -0.9 15 13.4 E 13 20 7 11 1018.4 - 0.0
02/08:00am 27.1 22.2 -0.2 17 12.8 ESE 15 20 8 11 1018.1 - 0.0
02/07:30am 27.1 22.7 0.2 17 12.7 SE 13 19 7 10 1017.8 - 0.0
02/07:00am 25.5 21.5 0.2 19 11.8 SE 11 17 6 9 1017.5 - 0.0
02/06:30am 25.0 21.9 1.5 21 11.2 ESE 7 11 4 6 1016.8 - 0.0
02/06:00am 24.1 21.6 3.6 26 10.1 SE 6 7 3 4 1016.3 1015.4 0.0
02/05:30am 23.7 21.2 3.5 26 9.9 WNW 6 7 3 4 1016.3 - 0.0
02/05:00am 24.6 22.1 4.5 27 10.1 ESE 7 7 4 4 1016.0 - 0.0
02/04:30am 25.2 23.4 5.2 27 10.2 SE 4 6 2 3 1015.8 - 0.0
02/04:00am 25.3 23.8 2.8 23 11.0 CALM 0 0 0 0 1015.5 - 0.0
02/03:30am 25.4 22.4 2.3 22 11.2 E 7 11 4 6 1015.2 - 0.0
02/03:00am 25.8 23.3 3.8 24 11.0 E 6 7 3 4 1015.1 1014.2 0.0
02/02:30am 26.4 23.4 0.7 18 12.2 E 6 9 3 5 1015.2 - 0.0
02/02:00am 26.9 22.9 0.2 17 12.6 SE 11 15 6 8 1015.0 - 0.0
02/01:30am 27.7 22.8 -0.8 15 13.3 SE 15 19 8 10 1015.1 - 0.0
02/01:00am 28.1 23.0 -2.1 14 13.8 SE 15 22 8 12 1015.1 - 0.0
02/12:30am 28.1 23.4 -1.6 14 13.7 SE 13 20 7 11 1015.5 - 0.0
02/12:00am 28.2 22.8 -1.4 14 13.7 SE 17 22 9 12 1015.7 1014.8 0.0
 
Date/Time
WST
Temp
°C
App
Temp
°C
Dew
Point
Rel
Hum
%
Delta-T
°C
Wind Press
QNH
hPa
Press
MSL
hPa
Rain
since 9 am
mm
Dir
 
Spd
km/h
Gust
km/h
Spd
kts
Gust
kts
01/11:30pm 28.2 23.1 -1.8 14 13.8 SE 15 20 8 11 1015.9 - 0.0
01/11:00pm 28.5 23.0 -2.0 13 14.0 SE 17 22 9 12 1016.0 - 0.0
01/10:30pm 28.9 23.0 -1.9 13 14.2 SE 19 28 10 15 1016.1 - 0.0
01/10:00pm 29.1 23.3 -1.8 13 14.3 SE 19 28 10 15 1016.2 - 0.0
01/09:30pm 29.1 24.5 -0.9 14 14.1 SSE 13 19 7 10 1016.3 - 0.0
01/09:00pm 29.3 24.8 -0.4 14 14.1 SSE 13 20 7 11 1016.2 1015.3 0.0
01/08:30pm 29.4 25.7 -0.1 15 14.1 SSE 9 15 5 8 1016.1 - 0.0
01/08:00pm 29.0 26.0 2.2 18 13.3 S 7 11 4 6 1016.0 - 0.0
01/07:30pm 29.0 25.9 1.4 17 13.5 S 7 11 4 6 1015.6 - 0.0
01/07:00pm 29.5 26.0 1.4 16 13.8 S 9 15 5 8 1015.3 - 0.0
01/06:30pm 30.2 28.2 2.2 16 14.0 SW 2 7 1 4 1014.9 - 0.0
01/06:00pm 30.4 28.2 3.4 18 13.8 SSW 4 7 2 4 1014.5 1013.6 0.0
01/05:30pm 30.7 28.1 3.3 17 14.0 ESE 6 7 3 4 1014.2 - 0.0
01/05:00pm 31.4 28.2 0.7 14 15.1 E 7 9 4 5 1013.8 - 0.0
01/04:30pm 32.0 28.5 1.3 14 15.3 E 9 11 5 6 1013.5 - 0.0
01/04:00pm 32.6 28.4 -1.1 11 16.2 ESE 11 19 6 10 1013.4 - 0.0
01/03:30pm 33.1 29.1 -2.6 10 16.8 E 9 20 5 11 1013.2 - 0.0
01/03:00pm 33.3 29.3 -2.0 10 16.8 ESE 9 19 5 10 1013.2 1012.3 0.0
01/02:30pm 33.0 28.4 -1.4 11 16.5 SSE 13 20 7 11 1013.3 - 0.0
01/02:00pm 33.0 29.5 -1.4 11 16.5 E 7 15 4 8 1013.6 - 0.0
01/01:30pm 32.8 27.6 -2.5 10 16.6 ENE 15 26 8 14 1013.9 - 0.0
01/01:00pm 32.6 27.8 -2.6 10 16.5 E 13 17 7 9 1014.5 - 0.0
01/12:30pm 32.5 26.3 -3.5 9 16.6 E 20 30 11 16 1014.9 - 0.0
01/12:00pm 32.1 26.9 -3.1 10 16.3 E 15 26 8 14 1015.4 1014.5 0.0
01/11:30am 31.6 26.0 -3.1 10 16.0 E 17 26 9 14 1016.0 - 0.0
01/11:00am 31.3 27.0 -2.0 11 15.6 E 11 20 6 11 1016.5 - 0.0
01/10:30am 29.8 25.1 -1.8 13 14.7 ESE 13 22 7 12 1016.9 - 0.0
01/10:00am 29.6 23.9 -3.9 11 15.0 ESE 17 30 9 16 1017.2 - 0.0
01/09:30am 29.7 24.1 -3.1 11 14.9 ESE 17 24 9 13 1017.6 - 0.0
01/09:00am 27.8 22.7 -2.0 14 13.6 ESE 15 22 8 12 1017.8 1017.0 0.0
01/08:30am 26.5 21.0 -2.1 15 12.9 ESE 17 24 9 13 1017.7 - 0.0
01/08:00am 26.7 20.8 -2.1 15 13.0 SE 19 26 10 14 1017.8 - 0.0
01/07:30am 25.2 22.6 1.1 20 11.4 SSE 4 11 2 6 1017.7 - 0.0
01/07:00am 23.0 21.0 2.5 26 9.8 ESE 2 7 1 4 1017.4 - 0.0
01/06:30am 20.8 19.3 3.2 31 8.4 CALM 0 0 0 0 1017.0 - 0.0
01/06:00am 19.4 17.9 3.0 33 7.7 CALM 0 0 0 0 1016.7 1015.8 0.0
01/05:30am 18.9 17.5 3.5 36 7.3 CALM 0 4 0 2 1016.3 - 0.0
01/05:00am 20.4 17.3 3.5 32 8.1 E 9 11 5 6 1016.0 - 0.0
01/04:30am 20.7 17.9 3.0 31 8.4 E 7 9 4 5 1015.9 - 0.0
01/04:00am 21.0 18.3 3.8 32 8.3 SE 7 7 4 4 1015.9 - 0.0
01/03:30am 21.3 19.1 3.4 30 8.6 WSW 4 6 2 3 1015.8 - 0.0
01/03:00am 20.7 17.9 3.0 31 8.4 WSW 7 9 4 5 1015.7 1014.8 0.0
01/02:30am 20.2 17.5 2.8 31 8.2 W 6 7 3 4 1015.8 - 0.0
01/02:00am 19.8 18.5 4.3 36 7.5 CALM 0 0 0 0 1015.6 - 0.0
01/01:30am 21.2 18.8 4.2 32 8.3 E 6 9 3 5 1015.6 - 0.0
01/01:00am 20.2 19.1 5.2 37 7.4 CALM 0 7 0 4 1015.6 - 0.0
01/12:30am 20.7 19.2 4.9 35 7.8 ESE 2 7 1 4 1015.5 - 0.0
01/12:00am 21.3 18.9 5.2 35 8.0 ESE 7 9 4 5 1015.6 1014.9 0.0
 
Date/Time
WST
Temp
°C
App
Temp
°C
Dew
Point
Rel
Hum
%
Delta-T
°C
Wind Press
QNH
hPa
Press
MSL
hPa
Rain
since 9 am
mm
Dir
 
Spd
km/h
Gust
km/h
Spd
kts
Gust
kts
31/11:30pm 21.6 18.7 4.8 33 8.3 SE 9 11 5 6 1015.8 - 0.0
31/11:00pm 22.1 19.1 4.2 31 8.8 ESE 9 11 5 6 1015.7 - 0.0
31/10:30pm 21.8 18.8 4.0 31 8.7 ESE 9 11 5 6 1015.7 - 0.0
31/10:00pm 22.7 20.1 4.0 29 9.2 ENE 7 9 4 5 1015.7 - 0.0
31/09:30pm 23.6 20.6 4.0 28 9.7 SW 9 11 5 6 1015.7 - 0.0
31/09:00pm 24.6 21.0 2.8 24 10.6 WSW 11 11 6 6 1015.7 1015.0 0.0
31/08:30pm 25.6 22.6 2.0 21 11.4 SW 7 7 4 4 1015.5 - 0.0
31/08:00pm 26.5 23.6 2.8 21 11.7 SSW 7 11 4 6 1015.4 - 0.0
31/07:30pm 26.5 23.5 1.7 20 12.0 W 7 7 4 4 1015.3 - 0.0
31/07:00pm 26.8 23.7 1.6 19 12.2 W 7 11 4 6 1014.9 - 0.0
31/06:30pm 27.2 24.2 1.7 19 12.4 W 7 9 4 5 1014.5 - 0.0
31/06:00pm 28.7 25.1 0.8 16 13.5 N 9 9 5 5 1014.2 1013.5 0.0
31/05:30pm 29.3 25.6 0.1 15 14.0 N 9 11 5 6 1014.0 - 0.0
31/05:00pm 30.8 27.8 1.7 15 14.5 NNE 7 9 4 5 1013.9 - 0.0
31/04:30pm 31.9 28.7 -0.7 12 15.7 E 6 11 3 6 1013.8 - 0.0
31/04:00pm 32.1 28.7 -0.6 12 15.8 E 7 9 4 5 1013.8 - 0.0
31/03:30pm 32.5 28.1 -2.4 10 16.4 ENE 11 15 6 8 1013.7 - 0.0
31/03:00pm 32.6 29.4 -0.2 12 16.0 S 6 9 3 5 1013.7 1013.0 0.0
31/02:30pm 32.4 28.6 -0.7 12 16.0 SSE 9 15 5 8 1013.9 - 0.0
31/02:00pm 32.4 28.9 -1.7 11 16.2 NNE 7 17 4 9 1014.3 - 0.0
31/01:30pm 32.2 28.1 -2.8 10 16.3 ESE 9 17 5 9 1014.8 - 0.0
31/01:00pm 32.0 27.2 -2.4 11 16.1 SE 13 19 7 10 1015.5 - 0.0
31/12:30pm 31.3 27.5 -0.5 13 15.3 ENE 9 17 5 9 1015.8 - 0.0
31/12:00pm 31.2 26.8 -2.2 11 15.6 ENE 11 19 6 10 1016.5 1015.8 0.0
31/11:30am 30.7 25.9 -2.2 12 15.3 E 13 20 7 11 1017.0 - 0.0
31/11:00am 29.6 - - - - E 13 22 7 12 1017.6 - 0.0
31/10:30am 29.0 24.5 -3.1 12 14.5 NE 11 19 6 10 1017.9 - 0.0
31/10:00am 28.6 23.5 -1.8 13 14.0 E 15 22 8 12 1018.3 - 0.0
31/09:30am 28.2 23.7 -2.9 13 14.0 E 11 20 6 11 1018.8 - 0.0
31/09:00am 26.7 22.7 -2.1 15 13.0 E 9 15 5 8 1019.0 1018.3 0.0
31/08:30am 26.1 21.5 -1.4 16 12.5 E 13 17 7 9 1018.9 - 0.0
31/08:00am 25.3 22.2 0.2 19 11.7 E 6 11 3 6 1018.9 - 0.0
31/07:30am 23.9 20.7 1.0 22 10.7 E 7 9 4 5 1018.7 - 0.0
31/07:00am 22.3 19.4 1.5 25 9.7 ENE 6 9 3 5 1018.2 - 0.0
31/06:30am 21.0 18.0 2.2 29 8.8 E 7 9 4 5 1017.8 - 0.0
31/06:00am 19.5 16.6 2.6 32 7.9 E 7 9 4 5 1017.6 1017.0 0.0
31/05:30am 19.2 17.8 3.6 35 7.4 CALM 0 0 0 0 1017.2 - 0.0
31/05:00am 19.5 18.0 3.2 34 7.7 CALM 0 0 0 0 1016.9 - 0.0
31/04:30am 20.1 17.9 0.9 27 8.7 WSW 2 6 1 3 1016.7 - 0.0
31/04:00am 19.8 17.0 2.1 31 8.2 WSW 6 7 3 4 1016.7 - 0.0
31/03:30am 19.5 18.1 3.5 34 7.6 CALM 0 0 0 0 1016.6 - 0.0
31/03:00am 19.7 18.1 2.6 32 8.0 CALM 0 0 0 0 1016.5 1015.8 0.0
31/02:30am 20.5 19.3 4.5 35 7.8 CALM 0 0 0 0 1016.6 - 0.0
31/02:00am 20.1 18.4 4.2 35 7.7 WNW 2 7 1 4 1016.7 - 0.0
31/01:30am 21.9 20.3 2.2 27 9.3 CALM 0 0 0 0 1016.7 - 0.0
31/01:00am 22.5 20.8 1.6 25 9.8 CALM 0 0 0 0 1016.9 - 0.0
31/12:30am 22.2 20.5 1.7 26 9.6 CALM 0 0 0 0 1017.0 - 0.0
31/12:00am 23.0 21.2 1.5 24 10.1 CALM 0 0 0 0 1017.1 1016.5 0.0
 
Date/Time
WST
Temp
°C
App
Temp
°C
Dew
Point
Rel
Hum
%
Delta-T
°C
Wind Press
QNH
hPa
Press
MSL
hPa
Rain
since 9 am
mm
Dir
 
Spd
km/h
Gust
km/h
Spd
kts
Gust
kts
30/11:30pm 21.8 19.0 3.0 29 9.0 W 7 9 4 5 1017.1 - 0.0
30/11:00pm 21.4 18.9 3.6 31 8.6 W 6 7 3 4 1017.1 - 0.0
30/10:30pm 22.1 19.7 4.5 31 8.7 ESE 6 7 3 4 1016.9 - 0.0
30/10:00pm 22.3 19.4 4.5 31 8.8 ESE 9 11 5 6 1017.0 - 0.0
30/09:30pm 23.3 20.4 4.4 29 9.4 SE 9 11 5 6 1017.1 - 0.0
30/09:00pm 24.4 22.2 5.3 29 9.7 S 6 7 3 4 1017.0 1016.3 0.0
30/08:30pm 25.9 23.0 2.6 22 11.4 SSW 7 7 4 4 1017.0 - 0.0
30/08:00pm 26.2 23.7 4.8 25 10.9 SSW 7 9 4 5 1016.9 - 0.0
30/07:30pm 25.7 22.9 2.9 22 11.2 SW 7 11 4 6 1016.8 - 0.0
30/07:00pm 25.9 23.1 2.9 22 11.3 W 7 9 4 5 1016.6 - 0.0
30/06:30pm 27.4 24.5 2.8 20 12.2 N 7 9 4 5 1016.2 - 0.0
30/06:00pm 27.7 24.5 3.1 20 12.3 NNE 9 11 5 6 1015.9 1015.2 0.0
30/05:30pm 28.2 25.8 5.1 23 12.0 ENE 7 9 4 5 1015.6 - 0.0
30/05:00pm 30.0 27.2 3.3 18 13.6 ENE 7 11 4 6 1015.3 - 0.0
30/04:30pm 31.1 27.5 0.7 14 14.9 ESE 9 15 5 8 1015.1 - 0.0
30/04:00pm 31.6 27.2 0.3 13 15.3 ENE 13 19 7 10 1014.9 - 0.0
30/03:30pm 31.9 28.7 0.6 13 15.4 NE 7 13 4 7 1014.9 - 0.0
30/03:00pm 32.0 28.9 0.0 13 15.6 ENE 6 15 3 8 1014.9 1014.2 0.0
30/02:30pm 31.8 26.9 -0.5 12 15.6 E 15 20 8 11 1015.0 - 0.0
30/02:00pm 31.9 27.4 -0.3 12 15.6 ESE 13 17 7 9 1014.9 - 0.0
30/01:30pm 31.7 27.3 0.1 13 15.4 SE 13 20 7 11 1015.2 - 0.0
30/01:00pm 31.3 25.3 -1.9 11 15.6 E 20 30 11 16 1015.7 - 0.0
30/12:30pm 31.5 25.6 -2.4 11 15.8 E 19 28 10 15 1016.4 - 0.0
30/12:00pm 30.9 24.4 -2.6 11 15.5 E 22 32 12 17 1017.0 1016.3 0.0
30/11:30am 31.1 25.2 -2.6 11 15.6 ESE 19 26 10 14 1017.7 - 0.0
30/11:00am 30.0 23.1 -2.8 12 15.0 ESE 24 32 13 17 1018.3 - 0.0

Other Formats:

Comma delimited format used in spreadsheet applications
http://www.bom.gov.au/fwo/IDW60801/IDW60801.94217.axf

JavaScript Object Notation format (JSON) in row-major order
http://www.bom.gov.au/fwo/IDW60801/IDW60801.94217.json